sensor_id;sensor_type;location;lat;lon;timestamp;P1;P2;P0
65574;PMS5003;52216;54.942;73.394;2023-05-09T00:02:25;89.20;81.00;52.60
65574;PMS5003;52216;54.942;73.394;2023-05-09T00:05:28;85.00;77.40;50.00
65574;PMS5003;52216;54.942;73.394;2023-05-09T00:08:32;84.00;76.00;46.20
65574;PMS5003;52216;54.942;73.394;2023-05-09T00:11:37;89.60;81.00;48.80
65574;PMS5003;52216;54.942;73.394;2023-05-09T00:14:40;88.80;80.80;50.80
65574;PMS5003;52216;54.942;73.394;2023-05-09T00:17:43;92.20;82.80;52.80
65574;PMS5003;52216;54.942;73.394;2023-05-09T00:20:47;93.00;84.80;53.40
65574;PMS5003;52216;54.942;73.394;2023-05-09T00:23:52;90.60;85.20;53.60
65574;PMS5003;52216;54.942;73.394;2023-05-09T00:26:54;98.50;92.00;58.00
65574;PMS5003;52216;54.942;73.394;2023-05-09T00:29:57;90.33;83.67;51.33
65574;PMS5003;52216;54.942;73.394;2023-05-09T00:33:36;102.00;94.50;58.50
65574;PMS5003;52216;54.942;73.394;2023-05-09T00:36:40;102.20;93.80;58.60
65574;PMS5003;52216;54.942;73.394;2023-05-09T00:39:42;105.00;92.00;57.00
65574;PMS5003;52216;54.942;73.394;2023-05-09T00:42:45;102.20;92.00;58.00
65574;PMS5003;52216;54.942;73.394;2023-05-09T00:45:49;100.40;92.80;57.00
65574;PMS5003;52216;54.942;73.394;2023-05-09T00:48:52;100.20;91.20;56.60
65574;PMS5003;52216;54.942;73.394;2023-05-09T00:51:56;103.80;95.20;60.40
65574;PMS5003;52216;54.942;73.394;2023-05-09T00:55:01;103.67;97.83;61.50
65574;PMS5003;52216;54.942;73.394;2023-05-09T00:58:11;107.00;100.00;62.57
65574;PMS5003;52216;54.942;73.394;2023-05-09T01:01:13;110.67;102.00;63.67
65574;PMS5003;52216;54.942;73.394;2023-05-09T01:04:15;109.00;102.00;62.00
65574;PMS5003;52216;54.942;73.394;2023-05-09T01:13:47;106.60;98.80;61.20
65574;PMS5003;52216;54.942;73.394;2023-05-09T01:16:57;108.00;100.60;60.80
65574;PMS5003;52216;54.942;73.394;2023-05-09T01:20:09;105.67;97.33;59.67
65574;PMS5003;52216;54.942;73.394;2023-05-09T01:29:34;107.67;98.67;62.00
65574;PMS5003;52216;54.942;73.394;2023-05-09T01:32:38;105.60;94.80;58.80
65574;PMS5003;52216;54.942;73.394;2023-05-09T01:35:45;108.00;100.60;62.20
65574;PMS5003;52216;54.942;73.394;2023-05-09T01:38:51;108.20;100.60;60.80
65574;PMS5003;52216;54.942;73.394;2023-05-09T01:41:57;108.00;98.80;61.80
65574;PMS5003;52216;54.942;73.394;2023-05-09T01:45:04;109.40;99.00;61.20
65574;PMS5003;52216;54.942;73.394;2023-05-09T01:48:08;103.20;96.00;58.80
65574;PMS5003;52216;54.942;73.394;2023-05-09T01:51:13;97.00;89.00;56.00
65574;PMS5003;52216;54.942;73.394;2023-05-09T01:54:17;108.40;99.40;60.60
65574;PMS5003;52216;54.942;73.394;2023-05-09T01:57:21;113.00;105.60;66.00
65574;PMS5003;52216;54.942;73.394;2023-05-09T02:00:27;113.80;106.00;65.00
65574;PMS5003;52216;54.942;73.394;2023-05-09T02:03:31;113.20;103.40;64.20
65574;PMS5003;52216;54.942;73.394;2023-05-09T02:06:37;115.17;104.67;64.50
65574;PMS5003;52216;54.942;73.394;2023-05-09T02:09:39;115.00;102.00;64.00
65574;PMS5003;52216;54.942;73.394;2023-05-09T02:12:42;110.60;100.20;64.00
65574;PMS5003;52216;54.942;73.394;2023-05-09T02:15:47;109.00;98.00;61.80
65574;PMS5003;52216;54.942;73.394;2023-05-09T02:18:54;114.00;104.00;66.00
65574;PMS5003;52216;54.942;73.394;2023-05-09T02:21:57;113.20;103.40;64.60
65574;PMS5003;52216;54.942;73.394;2023-05-09T02:25:01;121.00;110.00;69.33
65574;PMS5003;52216;54.942;73.394;2023-05-09T02:28:06;129.80;118.80;74.00
65574;PMS5003;52216;54.942;73.394;2023-05-09T02:31:09;131.50;120.00;72.50
65574;PMS5003;52216;54.942;73.394;2023-05-09T02:34:14;121.20;113.20;69.00
65574;PMS5003;52216;54.942;73.394;2023-05-09T02:37:18;131.40;120.60;73.00
65574;PMS5003;52216;54.942;73.394;2023-05-09T02:40:22;130.20;119.00;73.40
65574;PMS5003;52216;54.942;73.394;2023-05-09T02:43:28;135.40;123.00;75.00
65574;PMS5003;52216;54.942;73.394;2023-05-09T02:46:31;129.20;119.80;73.00
65574;PMS5003;52216;54.942;73.394;2023-05-09T02:49:34;122.00;111.50;67.50
65574;PMS5003;52216;54.942;73.394;2023-05-09T02:52:40;115.40;105.60;65.80
65574;PMS5003;52216;54.942;73.394;2023-05-09T02:55:43;110.20;102.80;64.60
65574;PMS5003;52216;54.942;73.394;2023-05-09T02:58:47;110.20;102.20;64.80
65574;PMS5003;52216;54.942;73.394;2023-05-09T03:01:51;111.00;103.50;64.50
65574;PMS5003;52216;54.942;73.394;2023-05-09T03:04:55;112.60;103.40;63.80
65574;PMS5003;52216;54.942;73.394;2023-05-09T03:07:58;107.80;97.80;61.20
65574;PMS5003;52216;54.942;73.394;2023-05-09T03:11:10;107.80;98.80;60.80
65574;PMS5003;52216;54.942;73.394;2023-05-09T03:14:14;103.00;94.67;58.83
65574;PMS5003;52216;54.942;73.394;2023-05-09T03:17:16;96.00;87.00;56.00
65574;PMS5003;52216;54.942;73.394;2023-05-09T03:20:22;99.33;90.67;57.00
65574;PMS5003;52216;54.942;73.394;2023-05-09T03:23:25;110.00;102.00;61.50
65574;PMS5003;52216;54.942;73.394;2023-05-09T03:26:27;97.00;90.67;57.00
65574;PMS5003;52216;54.942;73.394;2023-05-09T03:29:33;97.00;90.33;55.33
65574;PMS5003;52216;54.942;73.394;2023-05-09T03:32:36;115.50;103.75;64.50
65574;PMS5003;52216;54.942;73.394;2023-05-09T03:35:41;114.20;105.60;65.80
65574;PMS5003;52216;54.942;73.394;2023-05-09T03:38:43;113.33;102.67;64.00
65574;PMS5003;52216;54.942;73.394;2023-05-09T03:41:46;110.40;103.80;63.80
65574;PMS5003;52216;54.942;73.394;2023-05-09T03:44:50;113.80;107.60;64.60
65574;PMS5003;52216;54.942;73.394;2023-05-09T03:47:57;116.80;108.00;65.20
65574;PMS5003;52216;54.942;73.394;2023-05-09T03:50:59;113.50;105.00;64.00
65574;PMS5003;52216;54.942;73.394;2023-05-09T03:54:04;116.00;106.40;64.60
65574;PMS5003;52216;54.942;73.394;2023-05-09T03:57:08;110.80;103.60;63.20
65574;PMS5003;52216;54.942;73.394;2023-05-09T04:00:15;115.00;106.00;65.00
65574;PMS5003;52216;54.942;73.394;2023-05-09T04:03:26;99.67;90.67;57.33
65574;PMS5003;52216;54.942;73.394;2023-05-09T04:06:31;101.75;93.50;58.00
65574;PMS5003;52216;54.942;73.394;2023-05-09T04:10:18;107.30;97.10;60.00
65574;PMS5003;52216;54.942;73.394;2023-05-09T04:13:30;105.67;95.33;59.33
65574;PMS5003;52216;54.942;73.394;2023-05-09T04:16:36;115.00;103.50;65.00
65574;PMS5003;52216;54.942;73.394;2023-05-09T04:19:46;103.29;95.00;58.14
65574;PMS5003;52216;54.942;73.394;2023-05-09T04:22:50;99.40;91.00;57.00
65574;PMS5003;52216;54.942;73.394;2023-05-09T04:25:57;112.20;103.00;63.40
65574;PMS5003;52216;54.942;73.394;2023-05-09T04:29:01;108.75;99.75;62.75
65574;PMS5003;52216;54.942;73.394;2023-05-09T04:32:04;107.00;97.33;61.33
65574;PMS5003;52216;54.942;73.394;2023-05-09T04:35:08;108.80;102.60;65.00
65574;PMS5003;52216;54.942;73.394;2023-05-09T04:38:16;113.00;104.60;66.00
65574;PMS5003;52216;54.942;73.394;2023-05-09T04:41:19;115.00;105.67;66.00
65574;PMS5003;52216;54.942;73.394;2023-05-09T04:44:22;109.00;99.25;62.00
65574;PMS5003;52216;54.942;73.394;2023-05-09T04:47:26;121.25;110.25;68.75
65574;PMS5003;52216;54.942;73.394;2023-05-09T04:50:29;131.33;121.33;75.33
65574;PMS5003;52216;54.942;73.394;2023-05-09T04:53:33;137.60;128.80;79.00
65574;PMS5003;52216;54.942;73.394;2023-05-09T04:56:37;145.20;133.60;80.40
65574;PMS5003;52216;54.942;73.394;2023-05-09T04:59:40;140.00;128.00;77.80
65574;PMS5003;52216;54.942;73.394;2023-05-09T05:02:42;144.67;131.33;81.00
65574;PMS5003;52216;54.942;73.394;2023-05-09T05:05:45;149.25;137.50;83.25
65574;PMS5003;52216;54.942;73.394;2023-05-09T05:08:48;149.00;135.20;81.60
65574;PMS5003;52216;54.942;73.394;2023-05-09T05:11:50;130.50;120.00;74.00
65574;PMS5003;52216;54.942;73.394;2023-05-09T05:14:53;139.40;130.60;78.40
65574;PMS5003;52216;54.942;73.394;2023-05-09T05:17:58;143.75;131.50;81.50
65574;PMS5003;52216;54.942;73.394;2023-05-09T05:21:07;133.80;124.20;75.20
65574;PMS5003;52216;54.942;73.394;2023-05-09T05:24:10;142.80;131.80;78.00
65574;PMS5003;52216;54.942;73.394;2023-05-09T05:27:14;152.60;141.00;86.60
65574;PMS5003;52216;54.942;73.394;2023-05-09T05:30:26;150.40;137.10;85.10
65574;PMS5003;52216;54.942;73.394;2023-05-09T05:33:29;151.20;139.00;85.60
65574;PMS5003;52216;54.942;73.394;2023-05-09T05:36:32;152.50;142.00;86.50
65574;PMS5003;52216;54.942;73.394;2023-05-09T05:39:35;160.00;150.40;90.40
65574;PMS5003;52216;54.942;73.394;2023-05-09T05:42:39;152.60;142.00;86.00
65574;PMS5003;52216;54.942;73.394;2023-05-09T05:45:44;153.00;140.20;84.60
65574;PMS5003;52216;54.942;73.394;2023-05-09T05:48:52;159.00;145.00;89.00
65574;PMS5003;52216;54.942;73.394;2023-05-09T05:51:56;156.80;143.40;87.00
65574;PMS5003;52216;54.942;73.394;2023-05-09T05:55:00;155.60;142.60;86.40
65574;PMS5003;52216;54.942;73.394;2023-05-09T05:58:03;150.60;138.60;83.40
65574;PMS5003;52216;54.942;73.394;2023-05-09T06:01:06;149.60;134.80;82.00
65574;PMS5003;52216;54.942;73.394;2023-05-09T06:04:10;150.80;137.00;84.00
65574;PMS5003;52216;54.942;73.394;2023-05-09T06:07:13;152.00;139.80;83.80
65574;PMS5003;52216;54.942;73.394;2023-05-09T06:10:16;145.20;135.20;82.80
65574;PMS5003;52216;54.942;73.394;2023-05-09T06:13:21;147.80;134.00;82.00
65574;PMS5003;52216;54.942;73.394;2023-05-09T06:16:28;144.60;132.40;81.40
65574;PMS5003;52216;54.942;73.394;2023-05-09T06:19:32;148.67;137.50;83.83
65574;PMS5003;52216;54.942;73.394;2023-05-09T06:22:35;150.75;137.00;84.25
65574;PMS5003;52216;54.942;73.394;2023-05-09T06:25:38;145.50;134.75;83.75
65574;PMS5003;52216;54.942;73.394;2023-05-09T06:28:42;138.75;126.75;76.00
65574;PMS5003;52216;54.942;73.394;2023-05-09T06:31:46;138.60;125.60;77.60
65574;PMS5003;52216;54.942;73.394;2023-05-09T06:34:49;142.80;128.80;78.20
65574;PMS5003;52216;54.942;73.394;2023-05-09T06:37:52;136.40;125.80;76.60
65574;PMS5003;52216;54.942;73.394;2023-05-09T06:40:55;138.40;128.40;77.20
65574;PMS5003;52216;54.942;73.394;2023-05-09T06:43:59;139.80;129.00;78.00
65574;PMS5003;52216;54.942;73.394;2023-05-09T06:47:04;135.80;123.60;75.80
65574;PMS5003;52216;54.942;73.394;2023-05-09T06:50:08;133.00;119.60;72.60
65574;PMS5003;52216;54.942;73.394;2023-05-09T06:53:11;130.40;121.80;73.60
65574;PMS5003;52216;54.942;73.394;2023-05-09T06:56:14;139.60;128.60;77.40
65574;PMS5003;52216;54.942;73.394;2023-05-09T06:59:18;130.80;120.00;73.80
65574;PMS5003;52216;54.942;73.394;2023-05-09T07:02:21;127.25;116.00;72.25
65574;PMS5003;52216;54.942;73.394;2023-05-09T07:05:24;126.25;114.50;70.75
65574;PMS5003;52216;54.942;73.394;2023-05-09T07:08:27;127.60;116.60;70.40
65574;PMS5003;52216;54.942;73.394;2023-05-09T07:11:47;130.00;119.00;72.00
65574;PMS5003;52216;54.942;73.394;2023-05-09T07:14:51;122.20;111.20;67.60
65574;PMS5003;52216;54.942;73.394;2023-05-09T07:17:54;113.40;104.00;63.60
65574;PMS5003;52216;54.942;73.394;2023-05-09T07:20:58;110.33;101.50;62.50
65574;PMS5003;52216;54.942;73.394;2023-05-09T07:24:02;108.00;96.00;59.40
65574;PMS5003;52216;54.942;73.394;2023-05-09T07:27:05;99.67;90.67;55.33
65574;PMS5003;52216;54.942;73.394;2023-05-09T07:30:07;101.00;93.00;56.00
65574;PMS5003;52216;54.942;73.394;2023-05-09T07:33:11;93.00;84.75;52.25
65574;PMS5003;52216;54.942;73.394;2023-05-09T07:36:15;86.40;78.00;47.80
65574;PMS5003;52216;54.942;73.394;2023-05-09T07:39:18;80.60;73.00;45.60
65574;PMS5003;52216;54.942;73.394;2023-05-09T07:42:21;72.00;65.50;40.00
65574;PMS5003;52216;54.942;73.394;2023-05-09T07:45:24;70.60;64.00;39.00
65574;PMS5003;52216;54.942;73.394;2023-05-09T07:48:26;67.25;56.50;35.50
65574;PMS5003;52216;54.942;73.394;2023-05-09T07:51:28;67.00;55.00;35.25
65574;PMS5003;52216;54.942;73.394;2023-05-09T07:54:31;65.00;53.00;33.00
65574;PMS5003;52216;54.942;73.394;2023-05-09T07:57:35;64.25;52.75;32.50
65574;PMS5003;52216;54.942;73.394;2023-05-09T08:00:37;63.50;52.00;33.00
65574;PMS5003;52216;54.942;73.394;2023-05-09T08:03:39;60.00;47.00;30.00
65574;PMS5003;52216;54.942;73.394;2023-05-09T08:06:41;60.00;48.00;31.00
65574;PMS5003;52216;54.942;73.394;2023-05-09T08:09:43;62.00;50.50;32.00
65574;PMS5003;52216;54.942;73.394;2023-05-09T08:12:45;62.75;52.00;33.00
65574;PMS5003;52216;54.942;73.394;2023-05-09T08:15:48;62.00;50.00;31.00
65574;PMS5003;52216;54.942;73.394;2023-05-09T08:18:50;62.75;49.00;30.50
65574;PMS5003;52216;54.942;73.394;2023-05-09T08:21:58;62.33;49.33;32.17
65574;PMS5003;52216;54.942;73.394;2023-05-09T08:25:01;59.00;48.00;31.00
65574;PMS5003;52216;54.942;73.394;2023-05-09T08:28:03;56.75;45.00;29.00
65574;PMS5003;52216;54.942;73.394;2023-05-09T08:31:05;51.50;41.00;26.50
65574;PMS5003;52216;54.942;73.394;2023-05-09T08:34:08;53.50;41.00;26.50
65574;PMS5003;52216;54.942;73.394;2023-05-09T08:37:10;52.50;42.00;27.00
65574;PMS5003;52216;54.942;73.394;2023-05-09T08:40:17;52.50;42.75;27.00
65574;PMS5003;52216;54.942;73.394;2023-05-09T08:43:20;47.50;40.00;26.00
65574;PMS5003;52216;54.942;73.394;2023-05-09T08:46:26;48.00;40.00;25.25
65574;PMS5003;52216;54.942;73.394;2023-05-09T08:49:29;47.00;38.50;25.00
65574;PMS5003;52216;54.942;73.394;2023-05-09T08:52:33;42.60;35.00;23.00
65574;PMS5003;52216;54.942;73.394;2023-05-09T08:55:37;42.80;35.60;23.60
65574;PMS5003;52216;54.942;73.394;2023-05-09T08:58:39;42.00;36.00;24.00
65574;PMS5003;52216;54.942;73.394;2023-05-09T09:01:41;42.00;34.00;23.00
65574;PMS5003;52216;54.942;73.394;2023-05-09T09:04:44;40.60;34.20;22.80
65574;PMS5003;52216;54.942;73.394;2023-05-09T09:07:47;42.00;34.75;22.25
65574;PMS5003;52216;54.942;73.394;2023-05-09T09:10:49;38.00;33.00;21.50
65574;PMS5003;52216;54.942;73.394;2023-05-09T09:13:52;36.00;32.00;21.00
65574;PMS5003;52216;54.942;73.394;2023-05-09T09:16:54;35.25;29.50;20.00
65574;PMS5003;52216;54.942;73.394;2023-05-09T09:19:58;31.75;27.00;19.00
65574;PMS5003;52216;54.942;73.394;2023-05-09T09:23:02;30.75;28.50;18.00
65574;PMS5003;52216;54.942;73.394;2023-05-09T09:26:05;28.50;27.00;18.00
65574;PMS5003;52216;54.942;73.394;2023-05-09T09:29:07;28.00;26.25;18.00
65574;PMS5003;52216;54.942;73.394;2023-05-09T09:32:09;26.75;25.00;17.00
65574;PMS5003;52216;54.942;73.394;2023-05-09T09:35:12;28.00;24.25;16.00
65574;PMS5003;52216;54.942;73.394;2023-05-09T09:38:15;25.00;22.50;15.00
65574;PMS5003;52216;54.942;73.394;2023-05-09T09:41:18;29.75;25.50;16.00
65574;PMS5003;52216;54.942;73.394;2023-05-09T09:44:21;23.00;23.00;15.00
65574;PMS5003;52216;54.942;73.394;2023-05-09T09:47:32;23.50;23.00;16.00
65574;PMS5003;52216;54.942;73.394;2023-05-09T09:50:35;20.40;19.00;13.00
65574;PMS5003;52216;54.942;73.394;2023-05-09T09:53:39;22.80;19.60;12.40
65574;PMS5003;52216;54.942;73.394;2023-05-09T09:56:46;24.50;21.00;13.00
65574;PMS5003;52216;54.942;73.394;2023-05-09T09:59:56;24.75;21.00;13.00
65574;PMS5003;52216;54.942;73.394;2023-05-09T10:03:33;21.67;20.00;12.00
65574;PMS5003;52216;54.942;73.394;2023-05-09T10:06:36;20.75;19.75;12.00
65574;PMS5003;52216;54.942;73.394;2023-05-09T10:09:38;17.00;17.00;9.00
65574;PMS5003;52216;54.942;73.394;2023-05-09T10:12:41;17.00;16.00;7.00
65574;PMS5003;52216;54.942;73.394;2023-05-09T10:15:45;18.00;16.00;7.00
65574;PMS5003;52216;54.942;73.394;2023-05-09T10:18:47;17.00;16.00;6.75
65574;PMS5003;52216;54.942;73.394;2023-05-09T10:21:50;17.00;16.00;7.00
65574;PMS5003;52216;54.942;73.394;2023-05-09T10:25:04;17.00;16.00;7.00
65574;PMS5003;52216;54.942;73.394;2023-05-09T10:28:27;14.00;13.00;6.00
65574;PMS5003;52216;54.942;73.394;2023-05-09T10:31:30;15.25;14.25;6.25
65574;PMS5003;52216;54.942;73.394;2023-05-09T10:34:34;15.00;14.00;6.00
65574;PMS5003;52216;54.942;73.394;2023-05-09T10:37:38;18.00;16.25;7.00
65574;PMS5003;52216;54.942;73.394;2023-05-09T10:40:42;17.40;16.00;6.00
65574;PMS5003;52216;54.942;73.394;2023-05-09T10:43:48;17.00;17.00;7.75
65574;PMS5003;52216;54.942;73.394;2023-05-09T10:46:51;15.00;14.50;6.00
65574;PMS5003;52216;54.942;73.394;2023-05-09T10:49:54;14.75;13.00;6.00
65574;PMS5003;52216;54.942;73.394;2023-05-09T10:53:03;15.00;13.00;6.00
65574;PMS5003;52216;54.942;73.394;2023-05-09T10:56:33;16.00;14.25;6.00
65574;PMS5003;52216;54.942;73.394;2023-05-09T10:59:41;15.00;15.00;8.00
65574;PMS5003;52216;54.942;73.394;2023-05-09T11:03:06;17.25;15.75;8.00
65574;PMS5003;52216;54.942;73.394;2023-05-09T11:06:13;17.00;16.00;6.00
65574;PMS5003;52216;54.942;73.394;2023-05-09T11:09:35;18.00;15.00;6.00
65574;PMS5003;52216;54.942;73.394;2023-05-09T11:12:56;18.00;16.00;7.00
65574;PMS5003;52216;54.942;73.394;2023-05-09T11:19:04;18.00;17.00;6.50
65574;PMS5003;52216;54.942;73.394;2023-05-09T11:22:51;19.50;18.00;7.75
65574;PMS5003;52216;54.942;73.394;2023-05-09T11:25:33;16.00;15.00;6.00
65574;PMS5003;52216;54.942;73.394;2023-05-09T11:28:37;15.00;15.00;6.00
65574;PMS5003;52216;54.942;73.394;2023-05-09T11:31:59;18.50;16.50;8.00
65574;PMS5003;52216;54.942;73.394;2023-05-09T11:38:07;17.00;16.00;8.00
65574;PMS5003;52216;54.942;73.394;2023-05-09T11:41:10;18.50;16.75;7.75
65574;PMS5003;52216;54.942;73.394;2023-05-09T11:44:13;18.50;17.00;8.00
65574;PMS5003;52216;54.942;73.394;2023-05-09T11:47:15;16.50;13.25;6.00
65574;PMS5003;52216;54.942;73.394;2023-05-09T11:50:18;15.00;14.00;7.00
65574;PMS5003;52216;54.942;73.394;2023-05-09T11:53:21;15.00;13.00;6.00
65574;PMS5003;52216;54.942;73.394;2023-05-09T11:56:23;13.00;9.50;4.00
65574;PMS5003;52216;54.942;73.394;2023-05-09T11:59:26;10.00;8.00;4.00
65574;PMS5003;52216;54.942;73.394;2023-05-09T12:02:30;7.00;7.00;3.00
65574;PMS5003;52216;54.942;73.394;2023-05-09T12:05:33;5.00;5.00;2.00
65574;PMS5003;52216;54.942;73.394;2023-05-09T12:08:35;4.33;4.33;1.00
65574;PMS5003;52216;54.942;73.394;2023-05-09T12:11:37;4.75;4.75;2.00
65574;PMS5003;52216;54.942;73.394;2023-05-09T12:14:40;5.00;5.00;2.75
65574;PMS5003;52216;54.942;73.394;2023-05-09T12:17:44;7.00;5.00;3.00
65574;PMS5003;52216;54.942;73.394;2023-05-09T12:20:47;7.67;6.00;3.00
65574;PMS5003;52216;54.942;73.394;2023-05-09T12:23:50;4.00;3.00;1.00
65574;PMS5003;52216;54.942;73.394;2023-05-09T12:26:58;3.00;3.00;1.00
65574;PMS5003;52216;54.942;73.394;2023-05-09T12:30:01;4.50;4.00;0.00
65574;PMS5003;52216;54.942;73.394;2023-05-09T12:33:06;4.50;4.50;0.00
65574;PMS5003;52216;54.942;73.394;2023-05-09T12:36:11;4.00;4.00;0.00
65574;PMS5003;52216;54.942;73.394;2023-05-09T12:39:18;2.00;2.00;0.00
65574;PMS5003;52216;54.942;73.394;2023-05-09T12:42:25;3.00;2.50;0.00
65574;PMS5003;52216;54.942;73.394;2023-05-09T12:45:27;3.00;2.00;0.00
65574;PMS5003;52216;54.942;73.394;2023-05-09T12:48:33;2.00;2.00;0.00
65574;PMS5003;52216;54.942;73.394;2023-05-09T12:51:36;2.25;2.00;0.00
65574;PMS5003;52216;54.942;73.394;2023-05-09T12:54:38;2.00;2.00;0.00
65574;PMS5003;52216;54.942;73.394;2023-05-09T12:57:40;2.00;2.00;0.00
65574;PMS5003;52216;54.942;73.394;2023-05-09T13:00:46;1.50;0.00;0.00
65574;PMS5003;52216;54.942;73.394;2023-05-09T13:03:50;0.25;0.25;0.00
65574;PMS5003;52216;54.942;73.394;2023-05-09T13:06:55;2.00;2.00;0.00
65574;PMS5003;52216;54.942;73.394;2023-05-09T13:09:59;2.00;2.00;0.00
65574;PMS5003;52216;54.942;73.394;2023-05-09T13:13:02;3.00;3.00;0.00
65574;PMS5003;52216;54.942;73.394;2023-05-09T13:16:06;1.00;1.00;0.00
65574;PMS5003;52216;54.942;73.394;2023-05-09T13:19:10;0.00;0.00;0.00
65574;PMS5003;52216;54.942;73.394;2023-05-09T13:22:13;1.00;1.00;0.00
65574;PMS5003;52216;54.942;73.394;2023-05-09T13:25:17;1.00;0.00;0.00
65574;PMS5003;52216;54.942;73.394;2023-05-09T13:28:23;1.00;0.00;0.00
65574;PMS5003;52216;54.942;73.394;2023-05-09T13:31:24;1.00;1.00;0.00
65574;PMS5003;52216;54.942;73.394;2023-05-09T13:34:28;1.00;1.00;0.00
65574;PMS5003;52216;54.942;73.394;2023-05-09T13:37:30;1.00;0.75;0.00
65574;PMS5003;52216;54.942;73.394;2023-05-09T13:40:32;2.00;1.00;0.00
65574;PMS5003;52216;54.942;73.394;2023-05-09T13:43:37;2.00;0.50;0.00
65574;PMS5003;52216;54.942;73.394;2023-05-09T13:46:42;0.50;0.00;0.00
65574;PMS5003;52216;54.942;73.394;2023-05-09T13:49:45;1.00;1.00;0.00
65574;PMS5003;52216;54.942;73.394;2023-05-09T13:52:48;1.00;1.00;0.00
65574;PMS5003;52216;54.942;73.394;2023-05-09T13:55:52;4.00;1.25;0.00
65574;PMS5003;52216;54.942;73.394;2023-05-09T13:58:55;4.00;3.00;0.00
65574;PMS5003;52216;54.942;73.394;2023-05-09T14:01:58;3.25;3.25;0.00
65574;PMS5003;52216;54.942;73.394;2023-05-09T14:05:00;4.50;4.50;0.00
65574;PMS5003;52216;54.942;73.394;2023-05-09T14:08:05;4.75;4.00;1.00
65574;PMS5003;52216;54.942;73.394;2023-05-09T14:11:09;6.00;5.00;3.00
65574;PMS5003;52216;54.942;73.394;2023-05-09T14:14:12;4.25;4.25;3.00
65574;PMS5003;52216;54.942;73.394;2023-05-09T14:17:14;6.75;4.00;2.00
65574;PMS5003;52216;54.942;73.394;2023-05-09T14:20:17;4.00;4.00;3.00
65574;PMS5003;52216;54.942;73.394;2023-05-09T14:23:19;6.00;5.00;3.00
65574;PMS5003;52216;54.942;73.394;2023-05-09T14:26:21;6.00;5.00;3.00
65574;PMS5003;52216;54.942;73.394;2023-05-09T14:29:23;8.25;6.50;3.00
65574;PMS5003;52216;54.942;73.394;2023-05-09T14:32:25;5.33;4.67;2.00
65574;PMS5003;52216;54.942;73.394;2023-05-09T14:35:29;5.00;4.50;3.00
65574;PMS5003;52216;54.942;73.394;2023-05-09T14:38:35;8.00;8.00;4.00
65574;PMS5003;52216;54.942;73.394;2023-05-09T14:41:39;12.50;9.50;4.25
65574;PMS5003;52216;54.942;73.394;2023-05-09T14:44:42;11.00;9.00;4.00
65574;PMS5003;52216;54.942;73.394;2023-05-09T14:47:46;10.25;8.00;4.75
65574;PMS5003;52216;54.942;73.394;2023-05-09T14:50:48;12.00;9.00;6.00
65574;PMS5003;52216;54.942;73.394;2023-05-09T14:53:53;14.00;11.50;6.50
65574;PMS5003;52216;54.942;73.394;2023-05-09T14:57:01;13.00;12.00;6.00
65574;PMS5003;52216;54.942;73.394;2023-05-09T15:00:05;12.00;11.00;6.00
65574;PMS5003;52216;54.942;73.394;2023-05-09T15:03:09;13.00;13.00;7.00
65574;PMS5003;52216;54.942;73.394;2023-05-09T15:06:13;13.00;13.00;7.00
65574;PMS5003;52216;54.942;73.394;2023-05-09T15:09:16;14.00;13.00;7.00
65574;PMS5003;52216;54.942;73.394;2023-05-09T15:12:19;16.25;15.25;9.25
65574;PMS5003;52216;54.942;73.394;2023-05-09T15:15:22;19.50;18.00;10.75
65574;PMS5003;52216;54.942;73.394;2023-05-09T15:18:25;21.75;21.50;14.25
65574;PMS5003;52216;54.942;73.394;2023-05-09T15:21:30;23.60;22.80;15.00
65574;PMS5003;52216;54.942;73.394;2023-05-09T15:24:33;26.00;24.50;16.00
65574;PMS5003;52216;54.942;73.394;2023-05-09T15:27:35;26.00;25.00;16.00
65574;PMS5003;52216;54.942;73.394;2023-05-09T15:30:40;26.00;24.00;16.00
65574;PMS5003;52216;54.942;73.394;2023-05-09T15:33:44;30.40;26.80;17.20
65574;PMS5003;52216;54.942;73.394;2023-05-09T15:36:46;27.25;25.00;16.00
65574;PMS5003;52216;54.942;73.394;2023-05-09T15:39:49;27.00;24.67;17.00
65574;PMS5003;52216;54.942;73.394;2023-05-09T15:42:51;29.67;25.00;16.00
65574;PMS5003;52216;54.942;73.394;2023-05-09T15:45:54;27.40;25.60;16.00
65574;PMS5003;52216;54.942;73.394;2023-05-09T15:48:58;31.40;26.00;16.80
65574;PMS5003;52216;54.942;73.394;2023-05-09T15:52:03;34.00;27.00;17.00
65574;PMS5003;52216;54.942;73.394;2023-05-09T15:55:06;29.50;26.00;17.00
65574;PMS5003;52216;54.942;73.394;2023-05-09T15:58:09;30.00;26.00;18.00
65574;PMS5003;52216;54.942;73.394;2023-05-09T16:01:11;33.00;28.00;18.50
65574;PMS5003;52216;54.942;73.394;2023-05-09T16:04:16;35.60;28.00;18.80
65574;PMS5003;52216;54.942;73.394;2023-05-09T16:07:19;33.00;28.00;18.00
65574;PMS5003;52216;54.942;73.394;2023-05-09T16:10:21;30.25;27.00;18.50
65574;PMS5003;52216;54.942;73.394;2023-05-09T16:13:23;32.50;27.25;18.00
65574;PMS5003;52216;54.942;73.394;2023-05-09T16:16:25;32.25;26.50;17.50
65574;PMS5003;52216;54.942;73.394;2023-05-09T16:19:27;33.50;26.00;17.75
65574;PMS5003;52216;54.942;73.394;2023-05-09T16:22:30;29.00;26.00;18.00
65574;PMS5003;52216;54.942;73.394;2023-05-09T16:25:32;30.50;27.50;18.00
65574;PMS5003;52216;54.942;73.394;2023-05-09T16:28:38;29.75;27.00;18.00
65574;PMS5003;52216;54.942;73.394;2023-05-09T16:31:44;31.00;27.00;18.00
65574;PMS5003;52216;54.942;73.394;2023-05-09T16:34:46;25.00;23.00;15.00
65574;PMS5003;52216;54.942;73.394;2023-05-09T16:37:53;23.00;21.00;14.00
65574;PMS5003;52216;54.942;73.394;2023-05-09T16:40:55;21.00;20.75;12.50
65574;PMS5003;52216;54.942;73.394;2023-05-09T16:43:57;22.00;19.00;10.00
65574;PMS5003;52216;54.942;73.394;2023-05-09T16:47:03;21.00;18.00;10.00
65574;PMS5003;52216;54.942;73.394;2023-05-09T16:50:06;19.40;17.00;10.00
65574;PMS5003;52216;54.942;73.394;2023-05-09T16:53:10;18.20;16.00;10.60
65574;PMS5003;52216;54.942;73.394;2023-05-09T16:56:15;16.50;15.00;8.50
65574;PMS5003;52216;54.942;73.394;2023-05-09T16:59:19;16.00;15.00;7.00
65574;PMS5003;52216;54.942;73.394;2023-05-09T17:02:22;15.00;14.25;6.00
65574;PMS5003;52216;54.942;73.394;2023-05-09T17:05:25;14.00;14.00;5.00
65574;PMS5003;52216;54.942;73.394;2023-05-09T17:08:29;14.25;14.25;5.25
65574;PMS5003;52216;54.942;73.394;2023-05-09T17:11:32;15.00;15.00;6.00
65574;PMS5003;52216;54.942;73.394;2023-05-09T17:14:35;14.25;13.50;5.50
65574;PMS5003;52216;54.942;73.394;2023-05-09T17:17:38;12.25;11.50;5.50
65574;PMS5003;52216;54.942;73.394;2023-05-09T17:20:40;11.00;9.00;5.00